sensor_id;sensor_type;location;lat;lon;timestamp;temperature;humidity
17200;DHT22;8716;52.268;20.968;2023-01-28T00:00:54;2.20;99.90
17200;DHT22;8716;52.268;20.968;2023-01-28T00:03:23;2.20;99.90
17200;DHT22;8716;52.268;20.968;2023-01-28T00:05:51;2.30;99.90
17200;DHT22;8716;52.268;20.968;2023-01-28T00:08:22;2.30;99.90
17200;DHT22;8716;52.268;20.968;2023-01-28T00:10:52;2.20;99.90
17200;DHT22;8716;52.268;20.968;2023-01-28T00:13:21;2.20;99.90
17200;DHT22;8716;52.268;20.968;2023-01-28T00:15:54;2.20;99.90
17200;DHT22;8716;52.268;20.968;2023-01-28T00:18:23;2.20;99.90
17200;DHT22;8716;52.268;20.968;2023-01-28T00:20:57;2.20;99.90
17200;DHT22;8716;52.268;20.968;2023-01-28T00:23:28;2.10;99.90
17200;DHT22;8716;52.268;20.968;2023-01-28T00:25:57;2.10;99.90
17200;DHT22;8716;52.268;20.968;2023-01-28T00:28:26;2.20;99.90
17200;DHT22;8716;52.268;20.968;2023-01-28T00:30:54;2.20;99.90
17200;DHT22;8716;52.268;20.968;2023-01-28T00:33:23;2.20;99.90
17200;DHT22;8716;52.268;20.968;2023-01-28T00:35:57;2.20;99.90
17200;DHT22;8716;52.268;20.968;2023-01-28T00:38:28;2.20;99.90
17200;DHT22;8716;52.268;20.968;2023-01-28T00:41:06;2.20;99.90
17200;DHT22;8716;52.268;20.968;2023-01-28T00:43:34;2.30;99.90
17200;DHT22;8716;52.268;20.968;2023-01-28T00:46:02;2.30;99.90
17200;DHT22;8716;52.268;20.968;2023-01-28T00:48:31;2.20;99.90
17200;DHT22;8716;52.268;20.968;2023-01-28T00:50:59;2.30;99.90
17200;DHT22;8716;52.268;20.968;2023-01-28T00:53:29;2.40;99.90
17200;DHT22;8716;52.268;20.968;2023-01-28T00:55:57;2.40;99.90
17200;DHT22;8716;52.268;20.968;2023-01-28T00:58:28;2.40;99.90
17200;DHT22;8716;52.268;20.968;2023-01-28T01:00:56;2.40;99.90
17200;DHT22;8716;52.268;20.968;2023-01-28T01:03:33;2.40;99.90
17200;DHT22;8716;52.268;20.968;2023-01-28T01:06:01;2.30;99.90
17200;DHT22;8716;52.268;20.968;2023-01-28T01:08:31;2.30;99.90
17200;DHT22;8716;52.268;20.968;2023-01-28T01:11:02;2.30;99.90
17200;DHT22;8716;52.268;20.968;2023-01-28T01:13:32;2.30;99.90
17200;DHT22;8716;52.268;20.968;2023-01-28T01:16:02;2.30;99.90
17200;DHT22;8716;52.268;20.968;2023-01-28T01:18:31;2.40;99.90
17200;DHT22;8716;52.268;20.968;2023-01-28T01:21:00;2.40;99.90
17200;DHT22;8716;52.268;20.968;2023-01-28T01:23:32;2.40;99.90
17200;DHT22;8716;52.268;20.968;2023-01-28T01:26:00;2.30;99.90
17200;DHT22;8716;52.268;20.968;2023-01-28T01:28:29;2.30;99.90
17200;DHT22;8716;52.268;20.968;2023-01-28T01:31:01;2.30;99.90
17200;DHT22;8716;52.268;20.968;2023-01-28T01:33:30;2.30;99.90
17200;DHT22;8716;52.268;20.968;2023-01-28T01:35:59;2.30;99.90
17200;DHT22;8716;52.268;20.968;2023-01-28T01:38:28;2.30;99.90
17200;DHT22;8716;52.268;20.968;2023-01-28T01:40:58;2.30;99.90
17200;DHT22;8716;52.268;20.968;2023-01-28T01:43:45;2.20;99.90
17200;DHT22;8716;52.268;20.968;2023-01-28T01:46:16;2.30;99.90
17200;DHT22;8716;52.268;20.968;2023-01-28T01:48:47;2.30;99.90
17200;DHT22;8716;52.268;20.968;2023-01-28T01:51:19;2.30;99.90
17200;DHT22;8716;52.268;20.968;2023-01-28T01:53:52;2.30;99.90
17200;DHT22;8716;52.268;20.968;2023-01-28T01:56:26;2.30;99.90
17200;DHT22;8716;52.268;20.968;2023-01-28T01:58:55;2.30;99.90
17200;DHT22;8716;52.268;20.968;2023-01-28T02:01:27;2.30;99.90
17200;DHT22;8716;52.268;20.968;2023-01-28T02:04:02;2.30;99.90
17200;DHT22;8716;52.268;20.968;2023-01-28T02:06:32;2.30;99.90
17200;DHT22;8716;52.268;20.968;2023-01-28T02:09:02;2.30;99.90
17200;DHT22;8716;52.268;20.968;2023-01-28T02:11:37;2.40;99.90
17200;DHT22;8716;52.268;20.968;2023-01-28T02:14:06;2.40;99.90
17200;DHT22;8716;52.268;20.968;2023-01-28T02:16:38;2.40;99.90
17200;DHT22;8716;52.268;20.968;2023-01-28T02:19:08;2.40;99.90
17200;DHT22;8716;52.268;20.968;2023-01-28T02:25:09;2.40;99.90
17200;DHT22;8716;52.268;20.968;2023-01-28T02:27:57;2.30;99.90
17200;DHT22;8716;52.268;20.968;2023-01-28T02:30:34;2.40;99.90
17200;DHT22;8716;52.268;20.968;2023-01-28T02:33:06;2.40;99.90
17200;DHT22;8716;52.268;20.968;2023-01-28T02:35:40;2.30;99.90
17200;DHT22;8716;52.268;20.968;2023-01-28T02:38:12;2.40;99.90
17200;DHT22;8716;52.268;20.968;2023-01-28T02:40:45;2.40;99.90
17200;DHT22;8716;52.268;20.968;2023-01-28T02:43:32;2.40;99.90
17200;DHT22;8716;52.268;20.968;2023-01-28T02:46:07;2.40;99.90
17200;DHT22;8716;52.268;20.968;2023-01-28T02:48:56;2.40;99.90
17200;DHT22;8716;52.268;20.968;2023-01-28T02:51:32;2.40;99.90
17200;DHT22;8716;52.268;20.968;2023-01-28T02:54:10;2.40;99.90
17200;DHT22;8716;52.268;20.968;2023-01-28T02:56:44;2.40;99.90
17200;DHT22;8716;52.268;20.968;2023-01-28T02:59:21;2.40;99.90
17200;DHT22;8716;52.268;20.968;2023-01-28T03:02:11;2.30;99.90
17200;DHT22;8716;52.268;20.968;2023-01-28T03:04:45;2.30;99.90
17200;DHT22;8716;52.268;20.968;2023-01-28T03:07:17;2.40;99.90
17200;DHT22;8716;52.268;20.968;2023-01-28T03:09:47;2.40;99.90
17200;DHT22;8716;52.268;20.968;2023-01-28T03:12:19;2.40;99.90
17200;DHT22;8716;52.268;20.968;2023-01-28T03:15:09;2.30;99.90
17200;DHT22;8716;52.268;20.968;2023-01-28T03:18:02;2.30;99.90
17200;DHT22;8716;52.268;20.968;2023-01-28T03:20:56;2.40;99.90
17200;DHT22;8716;52.268;20.968;2023-01-28T03:23:47;2.40;99.90
17200;DHT22;8716;52.268;20.968;2023-01-28T03:26:40;2.30;99.90
17200;DHT22;8716;52.268;20.968;2023-01-28T03:29:31;2.40;99.90
17200;DHT22;8716;52.268;20.968;2023-01-28T03:32:22;2.30;99.90
17200;DHT22;8716;52.268;20.968;2023-01-28T03:35:09;2.30;99.90
17200;DHT22;8716;52.268;20.968;2023-01-28T03:37:55;2.40;99.90
17200;DHT22;8716;52.268;20.968;2023-01-28T03:40:27;2.30;99.90
17200;DHT22;8716;52.268;20.968;2023-01-28T03:42:55;2.30;99.90
17200;DHT22;8716;52.268;20.968;2023-01-28T03:45:31;2.40;99.90
17200;DHT22;8716;52.268;20.968;2023-01-28T03:48:02;2.30;99.90
17200;DHT22;8716;52.268;20.968;2023-01-28T03:50:30;2.40;99.90
17200;DHT22;8716;52.268;20.968;2023-01-28T03:53:00;2.30;99.90
17200;DHT22;8716;52.268;20.968;2023-01-28T03:55:50;2.30;99.90
17200;DHT22;8716;52.268;20.968;2023-01-28T03:58:20;2.30;99.90
17200;DHT22;8716;52.268;20.968;2023-01-28T04:00:50;2.30;99.90
17200;DHT22;8716;52.268;20.968;2023-01-28T04:03:20;2.30;99.90
17200;DHT22;8716;52.268;20.968;2023-01-28T04:05:58;2.30;99.90
17200;DHT22;8716;52.268;20.968;2023-01-28T04:08:43;2.30;99.90
17200;DHT22;8716;52.268;20.968;2023-01-28T04:11:33;2.30;99.90
17200;DHT22;8716;52.268;20.968;2023-01-28T04:14:04;2.30;99.90
17200;DHT22;8716;52.268;20.968;2023-01-28T04:16:46;2.30;99.90
17200;DHT22;8716;52.268;20.968;2023-01-28T04:19:16;2.30;99.90
17200;DHT22;8716;52.268;20.968;2023-01-28T04:21:44;2.30;99.90
17200;DHT22;8716;52.268;20.968;2023-01-28T04:24:23;2.30;99.90
17200;DHT22;8716;52.268;20.968;2023-01-28T04:26:51;2.30;99.90
17200;DHT22;8716;52.268;20.968;2023-01-28T04:29:22;2.40;99.90
17200;DHT22;8716;52.268;20.968;2023-01-28T04:31:52;2.40;99.90
17200;DHT22;8716;52.268;20.968;2023-01-28T04:34:36;2.30;99.90
17200;DHT22;8716;52.268;20.968;2023-01-28T04:37:27;2.30;99.90
17200;DHT22;8716;52.268;20.968;2023-01-28T04:40:15;2.30;99.90
17200;DHT22;8716;52.268;20.968;2023-01-28T04:43:09;2.30;99.90
17200;DHT22;8716;52.268;20.968;2023-01-28T04:45:53;2.30;99.90
17200;DHT22;8716;52.268;20.968;2023-01-28T04:48:24;2.30;99.90
17200;DHT22;8716;52.268;20.968;2023-01-28T04:51:15;2.30;99.90
17200;DHT22;8716;52.268;20.968;2023-01-28T04:53:57;2.40;99.90
17200;DHT22;8716;52.268;20.968;2023-01-28T04:56:28;2.30;99.90
17200;DHT22;8716;52.268;20.968;2023-01-28T04:58:57;2.30;99.90
17200;DHT22;8716;52.268;20.968;2023-01-28T05:01:25;2.30;99.90
17200;DHT22;8716;52.268;20.968;2023-01-28T05:03:54;2.30;99.90
17200;DHT22;8716;52.268;20.968;2023-01-28T05:06:27;2.40;99.90
17200;DHT22;8716;52.268;20.968;2023-01-28T05:08:58;2.30;99.90
17200;DHT22;8716;52.268;20.968;2023-01-28T05:11:28;2.30;99.90
17200;DHT22;8716;52.268;20.968;2023-01-28T05:14:00;2.40;99.90
17200;DHT22;8716;52.268;20.968;2023-01-28T05:16:36;2.40;99.90
17200;DHT22;8716;52.268;20.968;2023-01-28T05:19:05;2.40;99.90
17200;DHT22;8716;52.268;20.968;2023-01-28T05:21:39;2.40;99.90
17200;DHT22;8716;52.268;20.968;2023-01-28T05:24:16;2.40;99.90
17200;DHT22;8716;52.268;20.968;2023-01-28T05:26:45;2.40;99.90
17200;DHT22;8716;52.268;20.968;2023-01-28T05:29:13;2.40;99.90
17200;DHT22;8716;52.268;20.968;2023-01-28T05:31:43;2.40;99.90
17200;DHT22;8716;52.268;20.968;2023-01-28T05:34:13;2.30;99.90
17200;DHT22;8716;52.268;20.968;2023-01-28T05:36:43;2.30;99.90
17200;DHT22;8716;52.268;20.968;2023-01-28T05:39:30;2.40;99.90
17200;DHT22;8716;52.268;20.968;2023-01-28T05:41:58;2.40;99.90
17200;DHT22;8716;52.268;20.968;2023-01-28T05:44:27;2.30;99.90
17200;DHT22;8716;52.268;20.968;2023-01-28T05:47:07;2.40;99.90
17200;DHT22;8716;52.268;20.968;2023-01-28T05:49:56;2.30;99.90
17200;DHT22;8716;52.268;20.968;2023-01-28T05:52:43;2.30;99.90
17200;DHT22;8716;52.268;20.968;2023-01-28T05:55:20;2.40;99.90
17200;DHT22;8716;52.268;20.968;2023-01-28T05:57:48;2.40;99.90
17200;DHT22;8716;52.268;20.968;2023-01-28T06:00:21;2.40;99.90
17200;DHT22;8716;52.268;20.968;2023-01-28T06:02:50;2.40;99.90
17200;DHT22;8716;52.268;20.968;2023-01-28T06:05:19;2.30;99.90
17200;DHT22;8716;52.268;20.968;2023-01-28T06:07:49;2.30;99.90
17200;DHT22;8716;52.268;20.968;2023-01-28T06:10:17;2.30;99.90
17200;DHT22;8716;52.268;20.968;2023-01-28T06:12:46;2.30;99.90
17200;DHT22;8716;52.268;20.968;2023-01-28T06:15:33;2.30;99.90
17200;DHT22;8716;52.268;20.968;2023-01-28T06:18:11;2.40;99.90
17200;DHT22;8716;52.268;20.968;2023-01-28T06:20:40;2.30;99.90
17200;DHT22;8716;52.268;20.968;2023-01-28T06:23:10;2.30;99.90
17200;DHT22;8716;52.268;20.968;2023-01-28T06:25:38;2.30;99.90
17200;DHT22;8716;52.268;20.968;2023-01-28T06:28:10;2.20;99.90
17200;DHT22;8716;52.268;20.968;2023-01-28T06:30:38;2.20;99.90
17200;DHT22;8716;52.268;20.968;2023-01-28T06:33:06;2.20;99.90
17200;DHT22;8716;52.268;20.968;2023-01-28T06:35:34;2.30;99.90
17200;DHT22;8716;52.268;20.968;2023-01-28T06:38:03;2.20;99.90
17200;DHT22;8716;52.268;20.968;2023-01-28T06:40:32;2.30;99.90
17200;DHT22;8716;52.268;20.968;2023-01-28T06:43:00;2.20;99.90
17200;DHT22;8716;52.268;20.968;2023-01-28T06:45:29;2.30;99.90
17200;DHT22;8716;52.268;20.968;2023-01-28T06:47:58;2.30;99.90
17200;DHT22;8716;52.268;20.968;2023-01-28T06:50:26;2.20;99.90
17200;DHT22;8716;52.268;20.968;2023-01-28T06:52:54;2.30;99.90
17200;DHT22;8716;52.268;20.968;2023-01-28T06:55:22;2.30;99.90
17200;DHT22;8716;52.268;20.968;2023-01-28T06:57:52;2.30;99.90
17200;DHT22;8716;52.268;20.968;2023-01-28T07:00:20;2.30;99.90
17200;DHT22;8716;52.268;20.968;2023-01-28T07:02:49;2.30;99.90
17200;DHT22;8716;52.268;20.968;2023-01-28T07:05:17;2.40;99.90
17200;DHT22;8716;52.268;20.968;2023-01-28T07:07:45;2.30;99.90
17200;DHT22;8716;52.268;20.968;2023-01-28T07:10:14;2.30;99.90
17200;DHT22;8716;52.268;20.968;2023-01-28T07:12:42;2.30;99.90
17200;DHT22;8716;52.268;20.968;2023-01-28T07:15:13;2.30;99.90
17200;DHT22;8716;52.268;20.968;2023-01-28T07:17:42;2.30;99.90
17200;DHT22;8716;52.268;20.968;2023-01-28T07:20:12;2.30;99.90
17200;DHT22;8716;52.268;20.968;2023-01-28T07:22:43;2.30;99.90
17200;DHT22;8716;52.268;20.968;2023-01-28T07:25:14;2.30;99.90
17200;DHT22;8716;52.268;20.968;2023-01-28T07:27:49;2.40;99.90
17200;DHT22;8716;52.268;20.968;2023-01-28T07:30:21;2.40;99.90
17200;DHT22;8716;52.268;20.968;2023-01-28T07:32:56;2.40;99.90
17200;DHT22;8716;52.268;20.968;2023-01-28T07:35:25;2.40;99.90
17200;DHT22;8716;52.268;20.968;2023-01-28T07:37:54;2.40;99.90
17200;DHT22;8716;52.268;20.968;2023-01-28T07:40:23;2.40;99.90
17200;DHT22;8716;52.268;20.968;2023-01-28T07:42:54;2.50;99.90
17200;DHT22;8716;52.268;20.968;2023-01-28T07:45:30;2.40;99.90
17200;DHT22;8716;52.268;20.968;2023-01-28T07:48:01;2.40;99.90
17200;DHT22;8716;52.268;20.968;2023-01-28T07:50:34;2.40;99.90
17200;DHT22;8716;52.268;20.968;2023-01-28T07:53:03;2.40;99.90
17200;DHT22;8716;52.268;20.968;2023-01-28T07:55:32;2.50;99.90
17200;DHT22;8716;52.268;20.968;2023-01-28T07:58:05;2.40;99.90
17200;DHT22;8716;52.268;20.968;2023-01-28T08:00:38;2.50;99.90
17200;DHT22;8716;52.268;20.968;2023-01-28T08:03:12;2.50;99.90
17200;DHT22;8716;52.268;20.968;2023-01-28T08:05:44;2.50;99.90
17200;DHT22;8716;52.268;20.968;2023-01-28T08:08:13;2.50;99.90
17200;DHT22;8716;52.268;20.968;2023-01-28T08:10:41;2.40;99.90
17200;DHT22;8716;52.268;20.968;2023-01-28T08:13:14;2.50;99.90
17200;DHT22;8716;52.268;20.968;2023-01-28T08:15:44;2.50;99.90
17200;DHT22;8716;52.268;20.968;2023-01-28T08:18:15;2.50;99.90
17200;DHT22;8716;52.268;20.968;2023-01-28T08:20:47;2.50;99.90
17200;DHT22;8716;52.268;20.968;2023-01-28T08:23:16;2.50;99.90
17200;DHT22;8716;52.268;20.968;2023-01-28T08:25:48;2.50;99.90
17200;DHT22;8716;52.268;20.968;2023-01-28T08:28:22;2.50;99.90
17200;DHT22;8716;52.268;20.968;2023-01-28T08:30:53;2.40;99.90
17200;DHT22;8716;52.268;20.968;2023-01-28T08:33:22;2.40;99.90
17200;DHT22;8716;52.268;20.968;2023-01-28T08:35:50;2.50;99.90
17200;DHT22;8716;52.268;20.968;2023-01-28T08:38:18;2.50;99.90
17200;DHT22;8716;52.268;20.968;2023-01-28T08:40:47;2.50;99.90
17200;DHT22;8716;52.268;20.968;2023-01-28T08:43:18;2.50;99.90
17200;DHT22;8716;52.268;20.968;2023-01-28T08:45:48;2.40;99.90
17200;DHT22;8716;52.268;20.968;2023-01-28T08:48:18;2.40;99.90
17200;DHT22;8716;52.268;20.968;2023-01-28T08:50:47;2.40;99.90
17200;DHT22;8716;52.268;20.968;2023-01-28T08:53:18;2.50;99.90
17200;DHT22;8716;52.268;20.968;2023-01-28T08:55:49;2.40;99.90
17200;DHT22;8716;52.268;20.968;2023-01-28T08:58:20;2.40;99.90
17200;DHT22;8716;52.268;20.968;2023-01-28T09:00:49;2.40;99.90
17200;DHT22;8716;52.268;20.968;2023-01-28T09:03:21;2.50;99.90
17200;DHT22;8716;52.268;20.968;2023-01-28T09:05:49;2.50;99.90
17200;DHT22;8716;52.268;20.968;2023-01-28T09:08:17;2.50;99.90
17200;DHT22;8716;52.268;20.968;2023-01-28T09:10:46;2.60;99.90
17200;DHT22;8716;52.268;20.968;2023-01-28T09:13:17;2.60;99.90
17200;DHT22;8716;52.268;20.968;2023-01-28T09:15:45;2.60;99.90
17200;DHT22;8716;52.268;20.968;2023-01-28T09:18:16;2.70;99.90
17200;DHT22;8716;52.268;20.968;2023-01-28T09:20:48;2.60;99.90
17200;DHT22;8716;52.268;20.968;2023-01-28T09:23:16;2.60;99.90
17200;DHT22;8716;52.268;20.968;2023-01-28T09:25:46;2.50;99.90
17200;DHT22;8716;52.268;20.968;2023-01-28T09:28:14;2.50;99.90
17200;DHT22;8716;52.268;20.968;2023-01-28T09:30:42;2.50;99.90
17200;DHT22;8716;52.268;20.968;2023-01-28T09:33:12;2.50;99.90
17200;DHT22;8716;52.268;20.968;2023-01-28T09:35:40;2.50;99.90
17200;DHT22;8716;52.268;20.968;2023-01-28T09:38:09;2.50;99.90
17200;DHT22;8716;52.268;20.968;2023-01-28T09:40:41;2.60;99.90
17200;DHT22;8716;52.268;20.968;2023-01-28T09:43:24;2.60;99.90
17200;DHT22;8716;52.268;20.968;2023-01-28T09:45:57;2.60;99.90
17200;DHT22;8716;52.268;20.968;2023-01-28T09:48:30;2.60;99.90
17200;DHT22;8716;52.268;20.968;2023-01-28T09:51:00;2.60;99.90
17200;DHT22;8716;52.268;20.968;2023-01-28T09:53:32;2.60;99.90
17200;DHT22;8716;52.268;20.968;2023-01-28T09:56:04;2.70;99.90
17200;DHT22;8716;52.268;20.968;2023-01-28T09:58:33;2.60;99.90
17200;DHT22;8716;52.268;20.968;2023-01-28T10:01:07;2.60;99.90
17200;DHT22;8716;52.268;20.968;2023-01-28T10:03:49;2.70;99.90
17200;DHT22;8716;52.268;20.968;2023-01-28T10:06:27;2.70;99.90
17200;DHT22;8716;52.268;20.968;2023-01-28T10:09:28;2.70;99.90
17200;DHT22;8716;52.268;20.968;2023-01-28T10:15:16;2.70;99.90
17200;DHT22;8716;52.268;20.968;2023-01-28T10:17:48;2.70;99.90
17200;DHT22;8716;52.268;20.968;2023-01-28T10:20:21;2.70;99.90
17200;DHT22;8716;52.268;20.968;2023-01-28T10:22:55;2.60;99.90
17200;DHT22;8716;52.268;20.968;2023-01-28T10:25:29;2.60;99.90
17200;DHT22;8716;52.268;20.968;2023-01-28T10:28:00;2.60;99.90
17200;DHT22;8716;52.268;20.968;2023-01-28T10:30:31;2.60;99.90
17200;DHT22;8716;52.268;20.968;2023-01-28T10:33:03;2.70;99.90
17200;DHT22;8716;52.268;20.968;2023-01-28T10:35:37;2.70;99.90
17200;DHT22;8716;52.268;20.968;2023-01-28T10:38:09;2.70;99.90
17200;DHT22;8716;52.268;20.968;2023-01-28T10:40:42;2.70;99.90
17200;DHT22;8716;52.268;20.968;2023-01-28T10:43:15;2.70;99.90
17200;DHT22;8716;52.268;20.968;2023-01-28T10:45:52;2.70;99.90
17200;DHT22;8716;52.268;20.968;2023-01-28T10:48:23;2.60;99.90
17200;DHT22;8716;52.268;20.968;2023-01-28T10:50:54;2.70;99.90
17200;DHT22;8716;52.268;20.968;2023-01-28T10:53:34;2.70;99.90
17200;DHT22;8716;52.268;20.968;2023-01-28T10:56:06;2.70;99.90
17200;DHT22;8716;52.268;20.968;2023-01-28T10:58:46;2.70;99.90
17200;DHT22;8716;52.268;20.968;2023-01-28T11:01:14;2.80;99.90
17200;DHT22;8716;52.268;20.968;2023-01-28T11:03:53;2.80;99.90
17200;DHT22;8716;52.268;20.968;2023-01-28T11:06:24;2.80;99.90
17200;DHT22;8716;52.268;20.968;2023-01-28T11:08:53;2.80;99.90
17200;DHT22;8716;52.268;20.968;2023-01-28T11:11:26;2.80;99.90
17200;DHT22;8716;52.268;20.968;2023-01-28T11:13:55;2.80;99.90
17200;DHT22;8716;52.268;20.968;2023-01-28T11:16:25;2.80;99.90
17200;DHT22;8716;52.268;20.968;2023-01-28T11:18:56;2.80;99.90
17200;DHT22;8716;52.268;20.968;2023-01-28T11:21:28;2.70;99.90
17200;DHT22;8716;52.268;20.968;2023-01-28T11:23:59;2.80;99.90
17200;DHT22;8716;52.268;20.968;2023-01-28T11:26:31;2.70;99.90
17200;DHT22;8716;52.268;20.968;2023-01-28T11:29:00;2.70;99.90
17200;DHT22;8716;52.268;20.968;2023-01-28T11:31:38;2.80;99.90
17200;DHT22;8716;52.268;20.968;2023-01-28T11:34:15;2.80;99.90
17200;DHT22;8716;52.268;20.968;2023-01-28T11:36:49;2.80;99.90
17200;DHT22;8716;52.268;20.968;2023-01-28T11:39:21;2.80;99.90
17200;DHT22;8716;52.268;20.968;2023-01-28T11:41:53;2.80;99.90
17200;DHT22;8716;52.268;20.968;2023-01-28T11:44:24;2.80;99.90
17200;DHT22;8716;52.268;20.968;2023-01-28T11:47:06;2.80;99.90
17200;DHT22;8716;52.268;20.968;2023-01-28T11:49:47;2.80;99.90
17200;DHT22;8716;52.268;20.968;2023-01-28T11:52:22;2.80;99.90
17200;DHT22;8716;52.268;20.968;2023-01-28T11:55:18;2.80;99.90
17200;DHT22;8716;52.268;20.968;2023-01-28T11:57:57;2.80;99.90
17200;DHT22;8716;52.268;20.968;2023-01-28T12:00:36;2.80;99.90
17200;DHT22;8716;52.268;20.968;2023-01-28T12:06:28;2.80;99.90
17200;DHT22;8716;52.268;20.968;2023-01-28T12:09:07;2.70;99.90
17200;DHT22;8716;52.268;20.968;2023-01-28T12:11:46;2.70;99.90
17200;DHT22;8716;52.268;20.968;2023-01-28T12:17:32;2.80;99.90
17200;DHT22;8716;52.268;20.968;2023-01-28T12:20:12;2.70;99.90
17200;DHT22;8716;52.268;20.968;2023-01-28T12:23:02;2.70;99.90
17200;DHT22;8716;52.268;20.968;2023-01-28T12:25:45;2.80;99.90
17200;DHT22;8716;52.268;20.968;2023-01-28T12:28:23;2.80;99.90
17200;DHT22;8716;52.268;20.968;2023-01-28T12:31:13;2.80;99.90
17200;DHT22;8716;52.268;20.968;2023-01-28T12:33:59;2.80;99.90
17200;DHT22;8716;52.268;20.968;2023-01-28T12:36:39;2.80;99.90
17200;DHT22;8716;52.268;20.968;2023-01-28T12:39:20;2.80;99.90
17200;DHT22;8716;52.268;20.968;2023-01-28T12:42:04;2.80;99.90
17200;DHT22;8716;52.268;20.968;2023-01-28T12:44:36;2.70;99.90
17200;DHT22;8716;52.268;20.968;2023-01-28T12:47:09;2.70;99.90
17200;DHT22;8716;52.268;20.968;2023-01-28T12:49:43;2.70;99.90
17200;DHT22;8716;52.268;20.968;2023-01-28T12:52:17;2.70;99.90
17200;DHT22;8716;52.268;20.968;2023-01-28T12:54:55;2.70;99.90
17200;DHT22;8716;52.268;20.968;2023-01-28T12:57:27;2.80;99.90
17200;DHT22;8716;52.268;20.968;2023-01-28T13:00:04;2.70;99.90
17200;DHT22;8716;52.268;20.968;2023-01-28T13:02:41;2.70;99.90
17200;DHT22;8716;52.268;20.968;2023-01-28T13:05:14;2.80;99.90
17200;DHT22;8716;52.268;20.968;2023-01-28T13:07:48;2.70;99.90
17200;DHT22;8716;52.268;20.968;2023-01-28T13:10:25;2.70;99.90
17200;DHT22;8716;52.268;20.968;2023-01-28T13:12:55;2.70;99.90
17200;DHT22;8716;52.268;20.968;2023-01-28T13:15:24;2.70;99.90
17200;DHT22;8716;52.268;20.968;2023-01-28T13:17:56;2.70;99.90
17200;DHT22;8716;52.268;20.968;2023-01-28T13:20:34;2.70;99.90
17200;DHT22;8716;52.268;20.968;2023-01-28T13:23:18;2.70;99.90
17200;DHT22;8716;52.268;20.968;2023-01-28T13:25:49;2.80;99.90
17200;DHT22;8716;52.268;20.968;2023-01-28T13:28:27;2.80;99.90
17200;DHT22;8716;52.268;20.968;2023-01-28T13:31:04;2.80;99.90
17200;DHT22;8716;52.268;20.968;2023-01-28T13:33:36;2.70;99.90
17200;DHT22;8716;52.268;20.968;2023-01-28T13:36:17;2.70;99.90
17200;DHT22;8716;52.268;20.968;2023-01-28T13:38:57;2.70;99.90
17200;DHT22;8716;52.268;20.968;2023-01-28T13:41:37;2.80;99.90
17200;DHT22;8716;52.268;20.968;2023-01-28T13:44:17;2.70;99.90
17200;DHT22;8716;52.268;20.968;2023-01-28T13:46:46;2.70;99.90
17200;DHT22;8716;52.268;20.968;2023-01-28T13:49:20;2.70;99.90
17200;DHT22;8716;52.268;20.968;2023-01-28T13:51:57;2.70;99.90
17200;DHT22;8716;52.268;20.968;2023-01-28T13:54:28;2.70;99.90
17200;DHT22;8716;52.268;20.968;2023-01-28T13:57:25;2.60;99.90
17200;DHT22;8716;52.268;20.968;2023-01-28T14:00:07;2.70;99.90
17200;DHT22;8716;52.268;20.968;2023-01-28T14:03:09;2.70;99.90
17200;DHT22;8716;52.268;20.968;2023-01-28T14:06:07;2.60;99.90
17200;DHT22;8716;52.268;20.968;2023-01-28T14:09:04;2.60;99.90
17200;DHT22;8716;52.268;20.968;2023-01-28T14:12:04;2.60;99.90
17200;DHT22;8716;52.268;20.968;2023-01-28T14:15:19;2.60;99.90
17200;DHT22;8716;52.268;20.968;2023-01-28T14:17:51;2.60;99.90
17200;DHT22;8716;52.268;20.968;2023-01-28T14:20:22;2.60;99.90
17200;DHT22;8716;52.268;20.968;2023-01-28T14:22:58;2.60;99.90
17200;DHT22;8716;52.268;20.968;2023-01-28T14:25:34;2.60;99.90
17200;DHT22;8716;52.268;20.968;2023-01-28T14:28:04;2.60;99.90
17200;DHT22;8716;52.268;20.968;2023-01-28T14:30:45;2.60;99.90
17200;DHT22;8716;52.268;20.968;2023-01-28T14:33:14;2.60;99.90
17200;DHT22;8716;52.268;20.968;2023-01-28T14:35:46;2.60;99.90
17200;DHT22;8716;52.268;20.968;2023-01-28T14:38:18;2.60;99.90
17200;DHT22;8716;52.268;20.968;2023-01-28T14:40:48;2.60;99.90
17200;DHT22;8716;52.268;20.968;2023-01-28T14:43:21;2.60;99.90
17200;DHT22;8716;52.268;20.968;2023-01-28T14:46:01;2.60;99.90
17200;DHT22;8716;52.268;20.968;2023-01-28T14:48:39;2.60;99.90
17200;DHT22;8716;52.268;20.968;2023-01-28T14:51:34;2.50;99.90
17200;DHT22;8716;52.268;20.968;2023-01-28T14:54:27;2.50;99.90
17200;DHT22;8716;52.268;20.968;2023-01-28T14:57:11;2.50;99.90
17200;DHT22;8716;52.268;20.968;2023-01-28T14:59:42;2.50;99.90
17200;DHT22;8716;52.268;20.968;2023-01-28T15:02:17;2.40;99.90
17200;DHT22;8716;52.268;20.968;2023-01-28T15:04:46;2.50;99.90
17200;DHT22;8716;52.268;20.968;2023-01-28T15:07:18;2.50;99.90
17200;DHT22;8716;52.268;20.968;2023-01-28T15:09:59;2.40;99.90
17200;DHT22;8716;52.268;20.968;2023-01-28T15:12:29;2.40;99.90
17200;DHT22;8716;52.268;20.968;2023-01-28T15:15:07;2.40;99.90
17200;DHT22;8716;52.268;20.968;2023-01-28T15:17:36;2.40;99.90
17200;DHT22;8716;52.268;20.968;2023-01-28T15:20:06;2.40;99.90
17200;DHT22;8716;52.268;20.968;2023-01-28T15:39:17;2.40;99.90
17200;DHT22;8716;52.268;20.968;2023-01-28T15:42:33;2.40;99.90
17200;DHT22;8716;52.268;20.968;2023-01-28T15:45:30;2.30;99.90
17200;DHT22;8716;52.268;20.968;2023-01-28T15:48:43;2.40;99.90
17200;DHT22;8716;52.268;20.968;2023-01-28T15:52:19;2.40;99.90
17200;DHT22;8716;52.268;20.968;2023-01-28T17:57:03;2.10;99.90
17200;DHT22;8716;52.268;20.968;2023-01-28T17:59:32;2.10;99.90
17200;DHT22;8716;52.268;20.968;2023-01-28T18:02:00;2.10;99.90
17200;DHT22;8716;52.268;20.968;2023-01-28T18:04:30;2.20;99.90
17200;DHT22;8716;52.268;20.968;2023-01-28T18:07:04;2.20;99.90
17200;DHT22;8716;52.268;20.968;2023-01-28T18:09:37;2.20;99.90
17200;DHT22;8716;52.268;20.968;2023-01-28T18:12:11;2.20;99.90
17200;DHT22;8716;52.268;20.968;2023-01-28T18:14:39;2.10;99.90
17200;DHT22;8716;52.268;20.968;2023-01-28T18:17:10;2.10;99.90
17200;DHT22;8716;52.268;20.968;2023-01-28T18:19:38;2.10;99.90
17200;DHT22;8716;52.268;20.968;2023-01-28T18:22:09;2.00;99.90
17200;DHT22;8716;52.268;20.968;2023-01-28T18:24:37;2.00;99.90
17200;DHT22;8716;52.268;20.968;2023-01-28T18:27:09;2.10;99.90
17200;DHT22;8716;52.268;20.968;2023-01-28T18:29:38;2.10;99.90
17200;DHT22;8716;52.268;20.968;2023-01-28T18:32:06;2.10;99.90
17200;DHT22;8716;52.268;20.968;2023-01-28T18:34:36;2.10;99.90
17200;DHT22;8716;52.268;20.968;2023-01-28T18:37:05;2.10;99.90
17200;DHT22;8716;52.268;20.968;2023-01-28T18:39:34;2.20;99.90
17200;DHT22;8716;52.268;20.968;2023-01-28T18:42:03;2.20;99.90
17200;DHT22;8716;52.268;20.968;2023-01-28T18:44:34;2.20;99.90
17200;DHT22;8716;52.268;20.968;2023-01-28T18:47:03;2.20;99.90
17200;DHT22;8716;52.268;20.968;2023-01-28T18:49:31;2.10;99.90
17200;DHT22;8716;52.268;20.968;2023-01-28T18:52:00;2.10;99.90
17200;DHT22;8716;52.268;20.968;2023-01-28T18:54:28;2.10;99.90
17200;DHT22;8716;52.268;20.968;2023-01-28T18:56:56;2.10;99.90
17200;DHT22;8716;52.268;20.968;2023-01-28T18:59:29;2.10;99.90
17200;DHT22;8716;52.268;20.968;2023-01-28T19:02:00;2.10;99.90